sensor_id;sensor_type;location;lat;lon;timestamp;P1;durP1;ratioP1;P2;durP2;ratioP2
67751;SDS011;54551;51.068;5.826;2022-12-19T00:01:03;50.47;;;31.30;;
67751;SDS011;54551;51.068;5.826;2022-12-19T00:03:40;45.23;;;29.80;;
67751;SDS011;54551;51.068;5.826;2022-12-19T00:06:14;47.63;;;31.43;;
67751;SDS011;54551;51.068;5.826;2022-12-19T00:08:41;51.50;;;31.37;;
67751;SDS011;54551;51.068;5.826;2022-12-19T00:11:08;50.03;;;31.53;;
67751;SDS011;54551;51.068;5.826;2022-12-19T00:13:36;45.83;;;30.87;;
67751;SDS011;54551;51.068;5.826;2022-12-19T00:16:06;46.90;;;29.90;;
67751;SDS011;54551;51.068;5.826;2022-12-19T00:18:38;49.17;;;31.70;;
67751;SDS011;54551;51.068;5.826;2022-12-19T00:21:08;47.83;;;30.00;;
67751;SDS011;54551;51.068;5.826;2022-12-19T00:23:36;50.00;;;29.63;;
67751;SDS011;54551;51.068;5.826;2022-12-19T00:28:47;54.70;;;32.03;;
67751;SDS011;54551;51.068;5.826;2022-12-19T00:31:16;47.70;;;29.50;;
67751;SDS011;54551;51.068;5.826;2022-12-19T00:33:44;56.77;;;32.50;;
67751;SDS011;54551;51.068;5.826;2022-12-19T00:36:12;49.53;;;30.17;;
67751;SDS011;54551;51.068;5.826;2022-12-19T00:38:42;47.30;;;30.83;;
67751;SDS011;54551;51.068;5.826;2022-12-19T00:41:10;55.23;;;32.90;;
67751;SDS011;54551;51.068;5.826;2022-12-19T00:43:38;46.03;;;29.90;;
67751;SDS011;54551;51.068;5.826;2022-12-19T00:46:05;43.90;;;28.87;;
67751;SDS011;54551;51.068;5.826;2022-12-19T00:48:33;45.97;;;30.00;;
67751;SDS011;54551;51.068;5.826;2022-12-19T00:51:05;47.70;;;30.67;;
67751;SDS011;54551;51.068;5.826;2022-12-19T00:53:34;47.07;;;29.63;;
67751;SDS011;54551;51.068;5.826;2022-12-19T00:56:00;44.67;;;28.00;;
67751;SDS011;54551;51.068;5.826;2022-12-19T00:58:31;43.90;;;27.67;;
67751;SDS011;54551;51.068;5.826;2022-12-19T01:00:58;45.53;;;28.57;;
67751;SDS011;54551;51.068;5.826;2022-12-19T01:03:29;43.30;;;27.17;;
67751;SDS011;54551;51.068;5.826;2022-12-19T01:05:55;46.33;;;29.00;;
67751;SDS011;54551;51.068;5.826;2022-12-19T01:08:22;45.80;;;27.30;;
67751;SDS011;54551;51.068;5.826;2022-12-19T01:10:48;43.50;;;26.77;;
67751;SDS011;54551;51.068;5.826;2022-12-19T01:13:16;41.70;;;27.00;;
67751;SDS011;54551;51.068;5.826;2022-12-19T01:15:43;43.93;;;27.40;;
67751;SDS011;54551;51.068;5.826;2022-12-19T01:18:09;40.93;;;26.47;;
67751;SDS011;54551;51.068;5.826;2022-12-19T01:20:39;40.93;;;25.60;;
67751;SDS011;54551;51.068;5.826;2022-12-19T01:23:08;39.77;;;25.47;;
67751;SDS011;54551;51.068;5.826;2022-12-19T01:25:35;37.93;;;25.10;;
67751;SDS011;54551;51.068;5.826;2022-12-19T01:28:03;34.40;;;23.17;;
67751;SDS011;54551;51.068;5.826;2022-12-19T01:30:31;36.30;;;24.00;;
67751;SDS011;54551;51.068;5.826;2022-12-19T01:32:57;37.63;;;22.87;;
67751;SDS011;54551;51.068;5.826;2022-12-19T01:35:25;33.10;;;21.77;;
67751;SDS011;54551;51.068;5.826;2022-12-19T01:37:52;34.87;;;23.20;;
67751;SDS011;54551;51.068;5.826;2022-12-19T01:40:19;35.27;;;22.47;;
67751;SDS011;54551;51.068;5.826;2022-12-19T01:42:46;32.73;;;22.10;;
67751;SDS011;54551;51.068;5.826;2022-12-19T01:47:45;31.43;;;20.47;;
67751;SDS011;54551;51.068;5.826;2022-12-19T01:50:25;33.50;;;20.93;;
67751;SDS011;54551;51.068;5.826;2022-12-19T01:52:55;31.40;;;20.00;;
67751;SDS011;54551;51.068;5.826;2022-12-19T01:55:22;30.47;;;19.23;;
67751;SDS011;54551;51.068;5.826;2022-12-19T01:57:49;26.73;;;17.63;;
67751;SDS011;54551;51.068;5.826;2022-12-19T02:00:15;27.67;;;19.33;;
67751;SDS011;54551;51.068;5.826;2022-12-19T02:03:01;27.37;;;18.97;;
67751;SDS011;54551;51.068;5.826;2022-12-19T02:05:36;25.53;;;17.47;;
67751;SDS011;54551;51.068;5.826;2022-12-19T02:08:02;24.03;;;16.70;;
67751;SDS011;54551;51.068;5.826;2022-12-19T02:10:30;25.67;;;16.07;;
67751;SDS011;54551;51.068;5.826;2022-12-19T02:12:55;23.27;;;16.00;;
67751;SDS011;54551;51.068;5.826;2022-12-19T02:15:22;23.43;;;16.27;;
67751;SDS011;54551;51.068;5.826;2022-12-19T02:18:02;21.87;;;14.97;;
67751;SDS011;54551;51.068;5.826;2022-12-19T02:32:02;22.27;;;14.87;;
67751;SDS011;54551;51.068;5.826;2022-12-19T02:37:08;21.03;;;14.57;;
67751;SDS011;54551;51.068;5.826;2022-12-19T02:39:45;22.43;;;15.20;;
67751;SDS011;54551;51.068;5.826;2022-12-19T02:42:19;22.43;;;15.70;;
67751;SDS011;54551;51.068;5.826;2022-12-19T02:44:52;21.20;;;14.37;;
67751;SDS011;54551;51.068;5.826;2022-12-19T02:47:20;23.13;;;15.43;;
67751;SDS011;54551;51.068;5.826;2022-12-19T02:49:49;21.37;;;15.63;;
67751;SDS011;54551;51.068;5.826;2022-12-19T02:54:45;21.47;;;13.97;;
67751;SDS011;54551;51.068;5.826;2022-12-19T02:57:32;22.70;;;16.20;;
67751;SDS011;54551;51.068;5.826;2022-12-19T03:00:07;26.20;;;16.77;;
67751;SDS011;54551;51.068;5.826;2022-12-19T03:02:48;22.73;;;14.97;;
67751;SDS011;54551;51.068;5.826;2022-12-19T03:11:04;26.70;;;16.07;;
67751;SDS011;54551;51.068;5.826;2022-12-19T03:13:37;25.00;;;15.60;;
67751;SDS011;54551;51.068;5.826;2022-12-19T03:16:14;26.07;;;16.27;;
67751;SDS011;54551;51.068;5.826;2022-12-19T03:18:40;24.83;;;15.37;;
67751;SDS011;54551;51.068;5.826;2022-12-19T03:23:46;26.93;;;16.63;;
67751;SDS011;54551;51.068;5.826;2022-12-19T03:26:19;23.80;;;16.43;;
67751;SDS011;54551;51.068;5.826;2022-12-19T03:31:27;27.47;;;15.80;;
67751;SDS011;54551;51.068;5.826;2022-12-19T03:34:02;20.80;;;15.37;;
67751;SDS011;54551;51.068;5.826;2022-12-19T03:36:36;24.03;;;15.53;;
67751;SDS011;54551;51.068;5.826;2022-12-19T03:39:06;24.90;;;16.00;;
67751;SDS011;54551;51.068;5.826;2022-12-19T03:41:35;25.50;;;14.93;;
67751;SDS011;54551;51.068;5.826;2022-12-19T03:44:22;24.30;;;15.70;;
67751;SDS011;54551;51.068;5.826;2022-12-19T03:47:06;25.43;;;15.57;;
67751;SDS011;54551;51.068;5.826;2022-12-19T03:49:52;23.90;;;14.57;;
67751;SDS011;54551;51.068;5.826;2022-12-19T03:53:01;24.57;;;15.77;;
67751;SDS011;54551;51.068;5.826;2022-12-19T03:55:12;21.70;;;15.83;;
67751;SDS011;54551;51.068;5.826;2022-12-19T03:57:58;24.43;;;15.80;;
67751;SDS011;54551;51.068;5.826;2022-12-19T04:00:30;23.07;;;15.83;;
67751;SDS011;54551;51.068;5.826;2022-12-19T04:03:00;22.70;;;15.50;;
67751;SDS011;54551;51.068;5.826;2022-12-19T04:05:28;25.63;;;14.73;;
67751;SDS011;54551;51.068;5.826;2022-12-19T04:07:55;23.93;;;15.63;;
67751;SDS011;54551;51.068;5.826;2022-12-19T04:10:25;24.80;;;16.23;;
67751;SDS011;54551;51.068;5.826;2022-12-19T04:12:57;22.37;;;15.53;;
67751;SDS011;54551;51.068;5.826;2022-12-19T04:15:38;22.63;;;14.90;;
67751;SDS011;54551;51.068;5.826;2022-12-19T04:18:14;23.17;;;15.17;;
67751;SDS011;54551;51.068;5.826;2022-12-19T04:20:42;25.17;;;17.20;;
67751;SDS011;54551;51.068;5.826;2022-12-19T04:23:15;21.47;;;14.97;;
67751;SDS011;54551;51.068;5.826;2022-12-19T04:25:47;26.40;;;16.73;;
67751;SDS011;54551;51.068;5.826;2022-12-19T04:28:17;24.70;;;16.17;;
67751;SDS011;54551;51.068;5.826;2022-12-19T04:30:54;24.17;;;15.80;;
67751;SDS011;54551;51.068;5.826;2022-12-19T04:33:21;25.93;;;15.70;;
67751;SDS011;54551;51.068;5.826;2022-12-19T04:35:47;25.17;;;15.63;;
67751;SDS011;54551;51.068;5.826;2022-12-19T04:38:13;24.40;;;16.87;;
67751;SDS011;54551;51.068;5.826;2022-12-19T04:40:39;22.83;;;15.70;;
67751;SDS011;54551;51.068;5.826;2022-12-19T04:43:05;23.20;;;16.00;;
67751;SDS011;54551;51.068;5.826;2022-12-19T04:45:32;22.40;;;15.53;;
67751;SDS011;54551;51.068;5.826;2022-12-19T04:47:58;23.40;;;15.63;;
67751;SDS011;54551;51.068;5.826;2022-12-19T04:50:24;23.70;;;16.23;;
67751;SDS011;54551;51.068;5.826;2022-12-19T04:52:50;22.80;;;15.10;;
67751;SDS011;54551;51.068;5.826;2022-12-19T04:55:15;20.87;;;15.83;;
67751;SDS011;54551;51.068;5.826;2022-12-19T04:57:41;21.50;;;15.73;;
67751;SDS011;54551;51.068;5.826;2022-12-19T05:00:08;23.60;;;15.30;;
67751;SDS011;54551;51.068;5.826;2022-12-19T05:02:34;22.03;;;15.07;;
67751;SDS011;54551;51.068;5.826;2022-12-19T05:05:01;23.33;;;15.30;;
67751;SDS011;54551;51.068;5.826;2022-12-19T05:07:27;25.77;;;16.80;;
67751;SDS011;54551;51.068;5.826;2022-12-19T05:09:53;22.90;;;15.67;;
67751;SDS011;54551;51.068;5.826;2022-12-19T05:12:19;22.40;;;15.37;;
67751;SDS011;54551;51.068;5.826;2022-12-19T05:14:45;22.97;;;15.40;;
67751;SDS011;54551;51.068;5.826;2022-12-19T05:17:11;23.20;;;15.70;;
67751;SDS011;54551;51.068;5.826;2022-12-19T05:19:36;22.47;;;14.87;;
67751;SDS011;54551;51.068;5.826;2022-12-19T05:22:02;19.97;;;13.73;;
67751;SDS011;54551;51.068;5.826;2022-12-19T05:24:28;18.90;;;14.03;;
67751;SDS011;54551;51.068;5.826;2022-12-19T05:26:54;20.90;;;14.10;;
67751;SDS011;54551;51.068;5.826;2022-12-19T05:29:20;22.20;;;14.57;;
67751;SDS011;54551;51.068;5.826;2022-12-19T05:31:46;21.03;;;13.77;;
67751;SDS011;54551;51.068;5.826;2022-12-19T05:34:12;19.07;;;13.90;;
67751;SDS011;54551;51.068;5.826;2022-12-19T05:36:38;17.00;;;11.93;;
67751;SDS011;54551;51.068;5.826;2022-12-19T05:39:06;17.27;;;12.87;;
67751;SDS011;54551;51.068;5.826;2022-12-19T05:41:31;17.57;;;11.70;;
67751;SDS011;54551;51.068;5.826;2022-12-19T05:43:57;18.37;;;12.80;;
67751;SDS011;54551;51.068;5.826;2022-12-19T05:46:24;15.50;;;11.60;;
67751;SDS011;54551;51.068;5.826;2022-12-19T05:48:50;16.50;;;12.93;;
67751;SDS011;54551;51.068;5.826;2022-12-19T05:51:16;18.17;;;13.57;;
67751;SDS011;54551;51.068;5.826;2022-12-19T05:53:42;15.50;;;11.63;;
67751;SDS011;54551;51.068;5.826;2022-12-19T05:56:10;14.80;;;11.67;;
67751;SDS011;54551;51.068;5.826;2022-12-19T05:58:38;16.13;;;10.97;;
67751;SDS011;54551;51.068;5.826;2022-12-19T06:01:09;18.20;;;11.37;;
67751;SDS011;54551;51.068;5.826;2022-12-19T06:03:37;15.57;;;11.27;;
67751;SDS011;54551;51.068;5.826;2022-12-19T06:06:03;11.80;;;10.23;;
67751;SDS011;54551;51.068;5.826;2022-12-19T06:08:31;14.30;;;11.00;;
67751;SDS011;54551;51.068;5.826;2022-12-19T06:11:01;12.47;;;10.57;;
67751;SDS011;54551;51.068;5.826;2022-12-19T06:13:28;11.97;;;9.87;;
67751;SDS011;54551;51.068;5.826;2022-12-19T06:15:58;11.87;;;9.57;;
67751;SDS011;54551;51.068;5.826;2022-12-19T06:18:29;11.27;;;9.20;;
67751;SDS011;54551;51.068;5.826;2022-12-19T06:20:56;12.87;;;9.47;;
67751;SDS011;54551;51.068;5.826;2022-12-19T06:23:23;10.57;;;9.13;;
67751;SDS011;54551;51.068;5.826;2022-12-19T06:25:49;11.40;;;9.40;;
67751;SDS011;54551;51.068;5.826;2022-12-19T06:28:15;14.80;;;10.17;;
67751;SDS011;54551;51.068;5.826;2022-12-19T06:30:41;10.03;;;8.13;;
67751;SDS011;54551;51.068;5.826;2022-12-19T06:33:07;12.43;;;8.97;;
67751;SDS011;54551;51.068;5.826;2022-12-19T06:35:33;11.30;;;8.50;;
67751;SDS011;54551;51.068;5.826;2022-12-19T06:37:58;10.60;;;8.50;;
67751;SDS011;54551;51.068;5.826;2022-12-19T06:40:24;10.13;;;8.80;;
67751;SDS011;54551;51.068;5.826;2022-12-19T06:43:09;12.33;;;9.13;;
67751;SDS011;54551;51.068;5.826;2022-12-19T06:45:34;10.80;;;8.43;;
67751;SDS011;54551;51.068;5.826;2022-12-19T06:48:00;9.93;;;8.37;;
67751;SDS011;54551;51.068;5.826;2022-12-19T06:50:26;11.50;;;8.27;;
67751;SDS011;54551;51.068;5.826;2022-12-19T06:52:52;10.73;;;8.70;;
67751;SDS011;54551;51.068;5.826;2022-12-19T06:55:18;13.13;;;9.40;;
67751;SDS011;54551;51.068;5.826;2022-12-19T06:57:43;12.43;;;9.10;;
67751;SDS011;54551;51.068;5.826;2022-12-19T07:00:11;11.37;;;9.37;;
67751;SDS011;54551;51.068;5.826;2022-12-19T07:02:38;16.70;;;10.00;;
67751;SDS011;54551;51.068;5.826;2022-12-19T07:05:07;10.60;;;8.90;;
67751;SDS011;54551;51.068;5.826;2022-12-19T07:07:34;12.67;;;9.33;;
67751;SDS011;54551;51.068;5.826;2022-12-19T07:10:01;12.90;;;8.67;;
67751;SDS011;54551;51.068;5.826;2022-12-19T07:12:29;12.47;;;9.20;;
67751;SDS011;54551;51.068;5.826;2022-12-19T07:14:55;11.17;;;8.70;;
67751;SDS011;54551;51.068;5.826;2022-12-19T07:17:21;12.57;;;9.70;;
67751;SDS011;54551;51.068;5.826;2022-12-19T07:19:49;10.20;;;8.83;;
67751;SDS011;54551;51.068;5.826;2022-12-19T07:22:15;11.23;;;8.50;;
67751;SDS011;54551;51.068;5.826;2022-12-19T07:24:41;9.37;;;8.33;;
67751;SDS011;54551;51.068;5.826;2022-12-19T07:27:07;10.60;;;9.00;;
67751;SDS011;54551;51.068;5.826;2022-12-19T07:29:33;10.30;;;8.30;;
67751;SDS011;54551;51.068;5.826;2022-12-19T07:31:59;10.20;;;8.60;;
67751;SDS011;54551;51.068;5.826;2022-12-19T07:34:25;9.33;;;8.00;;
67751;SDS011;54551;51.068;5.826;2022-12-19T07:36:50;10.10;;;7.67;;
67751;SDS011;54551;51.068;5.826;2022-12-19T07:39:16;10.00;;;8.37;;
67751;SDS011;54551;51.068;5.826;2022-12-19T07:41:42;9.60;;;7.90;;
67751;SDS011;54551;51.068;5.826;2022-12-19T07:44:08;8.77;;;7.33;;
67751;SDS011;54551;51.068;5.826;2022-12-19T07:46:37;10.83;;;8.17;;
67751;SDS011;54551;51.068;5.826;2022-12-19T07:49:03;11.13;;;7.90;;
67751;SDS011;54551;51.068;5.826;2022-12-19T07:51:29;10.87;;;8.30;;
67751;SDS011;54551;51.068;5.826;2022-12-19T07:53:55;7.83;;;6.97;;
67751;SDS011;54551;51.068;5.826;2022-12-19T07:56:21;11.87;;;7.80;;
67751;SDS011;54551;51.068;5.826;2022-12-19T07:58:47;9.40;;;7.33;;
67751;SDS011;54551;51.068;5.826;2022-12-19T08:01:13;9.43;;;7.50;;
67751;SDS011;54551;51.068;5.826;2022-12-19T08:03:39;9.73;;;7.20;;
67751;SDS011;54551;51.068;5.826;2022-12-19T08:06:05;11.97;;;6.83;;
67751;SDS011;54551;51.068;5.826;2022-12-19T08:08:32;9.13;;;7.30;;
67751;SDS011;54551;51.068;5.826;2022-12-19T08:11:08;8.50;;;6.67;;
67751;SDS011;54551;51.068;5.826;2022-12-19T08:13:37;8.30;;;6.67;;
67751;SDS011;54551;51.068;5.826;2022-12-19T08:16:03;9.23;;;7.37;;
67751;SDS011;54551;51.068;5.826;2022-12-19T08:18:29;9.43;;;6.90;;
67751;SDS011;54551;51.068;5.826;2022-12-19T08:20:56;10.27;;;7.07;;
67751;SDS011;54551;51.068;5.826;2022-12-19T08:23:22;9.37;;;6.60;;
67751;SDS011;54551;51.068;5.826;2022-12-19T08:25:48;8.23;;;6.93;;
67751;SDS011;54551;51.068;5.826;2022-12-19T08:28:14;7.53;;;6.40;;
67751;SDS011;54551;51.068;5.826;2022-12-19T08:30:40;10.10;;;6.40;;
67751;SDS011;54551;51.068;5.826;2022-12-19T08:33:06;10.17;;;6.67;;
67751;SDS011;54551;51.068;5.826;2022-12-19T08:35:32;7.77;;;6.17;;
67751;SDS011;54551;51.068;5.826;2022-12-19T08:38:00;8.10;;;6.47;;
67751;SDS011;54551;51.068;5.826;2022-12-19T08:40:26;7.90;;;6.47;;
67751;SDS011;54551;51.068;5.826;2022-12-19T08:42:52;6.80;;;5.87;;
67751;SDS011;54551;51.068;5.826;2022-12-19T08:45:18;8.03;;;6.13;;
67751;SDS011;54551;51.068;5.826;2022-12-19T08:47:44;7.00;;;5.70;;
67751;SDS011;54551;51.068;5.826;2022-12-19T08:50:10;6.63;;;5.40;;
67751;SDS011;54551;51.068;5.826;2022-12-19T08:52:36;5.73;;;5.23;;
67751;SDS011;54551;51.068;5.826;2022-12-19T08:55:02;6.60;;;5.83;;
67751;SDS011;54551;51.068;5.826;2022-12-19T08:57:28;8.10;;;5.47;;
67751;SDS011;54551;51.068;5.826;2022-12-19T08:59:54;8.37;;;5.90;;
67751;SDS011;54551;51.068;5.826;2022-12-19T09:02:20;7.60;;;5.23;;
67751;SDS011;54551;51.068;5.826;2022-12-19T09:04:46;6.43;;;5.20;;
67751;SDS011;54551;51.068;5.826;2022-12-19T09:08:02;5.77;;;4.90;;
67751;SDS011;54551;51.068;5.826;2022-12-19T09:10:28;7.20;;;5.23;;
67751;SDS011;54551;51.068;5.826;2022-12-19T09:12:55;7.50;;;4.63;;
67751;SDS011;54551;51.068;5.826;2022-12-19T09:15:22;7.20;;;5.10;;
67751;SDS011;54551;51.068;5.826;2022-12-19T09:17:48;6.57;;;4.93;;
67751;SDS011;54551;51.068;5.826;2022-12-19T09:20:14;8.03;;;5.37;;
67751;SDS011;54551;51.068;5.826;2022-12-19T09:22:40;6.53;;;4.70;;
67751;SDS011;54551;51.068;5.826;2022-12-19T09:25:05;7.00;;;4.57;;
67751;SDS011;54551;51.068;5.826;2022-12-19T09:27:32;5.07;;;4.40;;
67751;SDS011;54551;51.068;5.826;2022-12-19T09:29:57;8.77;;;5.10;;
67751;SDS011;54551;51.068;5.826;2022-12-19T09:32:23;5.23;;;4.53;;
67751;SDS011;54551;51.068;5.826;2022-12-19T09:34:50;5.17;;;4.20;;
67751;SDS011;54551;51.068;5.826;2022-12-19T09:37:16;6.20;;;4.57;;
67751;SDS011;54551;51.068;5.826;2022-12-19T09:39:46;7.30;;;4.60;;
67751;SDS011;54551;51.068;5.826;2022-12-19T09:42:19;5.93;;;4.27;;
67751;SDS011;54551;51.068;5.826;2022-12-19T09:47:26;5.17;;;4.63;;
67751;SDS011;54551;51.068;5.826;2022-12-19T09:49:54;5.77;;;4.50;;
67751;SDS011;54551;51.068;5.826;2022-12-19T09:52:28;5.07;;;4.23;;
67751;SDS011;54551;51.068;5.826;2022-12-19T09:57:39;4.60;;;4.20;;
67751;SDS011;54551;51.068;5.826;2022-12-19T10:00:17;4.97;;;4.33;;
67751;SDS011;54551;51.068;5.826;2022-12-19T10:03:01;6.70;;;4.80;;
67751;SDS011;54551;51.068;5.826;2022-12-19T10:05:45;6.50;;;4.30;;
67751;SDS011;54551;51.068;5.826;2022-12-19T10:16:11;4.93;;;4.43;;
67751;SDS011;54551;51.068;5.826;2022-12-19T10:18:55;5.20;;;4.00;;
67751;SDS011;54551;51.068;5.826;2022-12-19T10:21:32;5.17;;;4.30;;
67751;SDS011;54551;51.068;5.826;2022-12-19T10:24:27;6.57;;;3.80;;
67751;SDS011;54551;51.068;5.826;2022-12-19T10:26:59;5.13;;;3.50;;
67751;SDS011;54551;51.068;5.826;2022-12-19T10:34:42;5.73;;;4.20;;
67751;SDS011;54551;51.068;5.826;2022-12-19T10:37:19;4.07;;;3.67;;
67751;SDS011;54551;51.068;5.826;2022-12-19T10:45:02;4.17;;;3.43;;
67751;SDS011;54551;51.068;5.826;2022-12-19T10:47:35;6.50;;;3.93;;
67751;SDS011;54551;51.068;5.826;2022-12-19T10:50:01;4.20;;;3.60;;
67751;SDS011;54551;51.068;5.826;2022-12-19T10:57:59;7.80;;;3.80;;
67751;SDS011;54551;51.068;5.826;2022-12-19T11:00:34;4.20;;;3.67;;
67751;SDS011;54551;51.068;5.826;2022-12-19T11:03:07;4.23;;;3.73;;
67751;SDS011;54551;51.068;5.826;2022-12-19T11:08:16;4.33;;;3.47;;
67751;SDS011;54551;51.068;5.826;2022-12-19T11:16:05;4.53;;;3.20;;
67751;SDS011;54551;51.068;5.826;2022-12-19T11:18:33;4.73;;;3.77;;
67751;SDS011;54551;51.068;5.826;2022-12-19T11:21:05;5.23;;;3.43;;
67751;SDS011;54551;51.068;5.826;2022-12-19T11:23:53;4.87;;;3.20;;
67751;SDS011;54551;51.068;5.826;2022-12-19T11:26:34;5.87;;;3.30;;
67751;SDS011;54551;51.068;5.826;2022-12-19T11:31:44;4.10;;;3.57;;
67751;SDS011;54551;51.068;5.826;2022-12-19T11:34:19;4.10;;;3.10;;
67751;SDS011;54551;51.068;5.826;2022-12-19T11:39:34;5.20;;;3.13;;
67751;SDS011;54551;51.068;5.826;2022-12-19T11:44:36;3.97;;;3.10;;
67751;SDS011;54551;51.068;5.826;2022-12-19T11:47:29;6.80;;;3.80;;
67751;SDS011;54551;51.068;5.826;2022-12-19T11:52:51;3.13;;;2.83;;
67751;SDS011;54551;51.068;5.826;2022-12-19T11:55:24;3.90;;;3.50;;
67751;SDS011;54551;51.068;5.826;2022-12-19T11:57:52;3.30;;;2.93;;
67751;SDS011;54551;51.068;5.826;2022-12-19T12:00:22;4.23;;;3.00;;
67751;SDS011;54551;51.068;5.826;2022-12-19T12:05:43;3.77;;;2.90;;
67751;SDS011;54551;51.068;5.826;2022-12-19T12:08:31;5.57;;;3.10;;
67751;SDS011;54551;51.068;5.826;2022-12-19T12:14:12;3.27;;;2.97;;
67751;SDS011;54551;51.068;5.826;2022-12-19T12:17:01;3.30;;;3.00;;
67751;SDS011;54551;51.068;5.826;2022-12-19T12:19:58;4.70;;;3.00;;
67751;SDS011;54551;51.068;5.826;2022-12-19T12:25:47;3.57;;;3.20;;
67751;SDS011;54551;51.068;5.826;2022-12-19T12:42:46;6.10;;;3.03;;
67751;SDS011;54551;51.068;5.826;2022-12-19T12:45:20;4.03;;;2.90;;
67751;SDS011;54551;51.068;5.826;2022-12-19T12:47:50;4.63;;;2.67;;
67751;SDS011;54551;51.068;5.826;2022-12-19T12:50:18;3.40;;;2.57;;
67751;SDS011;54551;51.068;5.826;2022-12-19T12:52:52;3.53;;;2.73;;
67751;SDS011;54551;51.068;5.826;2022-12-19T12:55:31;4.53;;;2.77;;
67751;SDS011;54551;51.068;5.826;2022-12-19T12:58:01;4.50;;;2.57;;
67751;SDS011;54551;51.068;5.826;2022-12-19T13:03:12;4.50;;;2.20;;
67751;SDS011;54551;51.068;5.826;2022-12-19T13:10:57;3.53;;;2.33;;
67751;SDS011;54551;51.068;5.826;2022-12-19T13:24:46;3.43;;;2.73;;
67751;SDS011;54551;51.068;5.826;2022-12-19T13:30:02;7.10;;;3.00;;
67751;SDS011;54551;51.068;5.826;2022-12-19T13:45:53;3.77;;;2.60;;
67751;SDS011;54551;51.068;5.826;2022-12-19T13:48:25;3.37;;;2.30;;
67751;SDS011;54551;51.068;5.826;2022-12-19T13:50:52;4.47;;;2.77;;
67751;SDS011;54551;51.068;5.826;2022-12-19T13:53:21;3.40;;;2.77;;
67751;SDS011;54551;51.068;5.826;2022-12-19T13:55:52;4.43;;;2.70;;
67751;SDS011;54551;51.068;5.826;2022-12-19T13:58:31;2.47;;;2.27;;
67751;SDS011;54551;51.068;5.826;2022-12-19T14:01:03;4.77;;;2.37;;
67751;SDS011;54551;51.068;5.826;2022-12-19T14:03:38;6.13;;;2.30;;
67751;SDS011;54551;51.068;5.826;2022-12-19T14:06:14;4.17;;;2.70;;
67751;SDS011;54551;51.068;5.826;2022-12-19T14:08:44;4.03;;;2.57;;
67751;SDS011;54551;51.068;5.826;2022-12-19T14:11:14;5.67;;;2.50;;
67751;SDS011;54551;51.068;5.826;2022-12-19T14:13:49;3.63;;;2.60;;
67751;SDS011;54551;51.068;5.826;2022-12-19T14:16:38;3.00;;;2.70;;
67751;SDS011;54551;51.068;5.826;2022-12-19T14:19:14;3.43;;;2.37;;
67751;SDS011;54551;51.068;5.826;2022-12-19T14:21:45;3.37;;;2.27;;
67751;SDS011;54551;51.068;5.826;2022-12-19T14:26:59;2.90;;;2.33;;
67751;SDS011;54551;51.068;5.826;2022-12-19T14:29:38;2.50;;;2.30;;
67751;SDS011;54551;51.068;5.826;2022-12-19T14:32:10;2.87;;;2.57;;
67751;SDS011;54551;51.068;5.826;2022-12-19T14:34:37;4.23;;;2.53;;
67751;SDS011;54551;51.068;5.826;2022-12-19T14:37:03;3.70;;;2.67;;
67751;SDS011;54551;51.068;5.826;2022-12-19T14:39:33;3.90;;;2.90;;
67751;SDS011;54551;51.068;5.826;2022-12-19T14:42:12;3.17;;;2.40;;
67751;SDS011;54551;51.068;5.826;2022-12-19T14:44:59;4.03;;;2.63;;
67751;SDS011;54551;51.068;5.826;2022-12-19T14:47:32;3.27;;;2.50;;
67751;SDS011;54551;51.068;5.826;2022-12-19T14:50:00;3.73;;;2.37;;
67751;SDS011;54551;51.068;5.826;2022-12-19T14:57:48;5.33;;;2.73;;
67751;SDS011;54551;51.068;5.826;2022-12-19T15:02:52;3.93;;;2.47;;
67751;SDS011;54551;51.068;5.826;2022-12-19T15:05:20;5.07;;;2.50;;
67751;SDS011;54551;51.068;5.826;2022-12-19T15:07:49;2.83;;;2.23;;
67751;SDS011;54551;51.068;5.826;2022-12-19T15:10:18;4.50;;;2.40;;
67751;SDS011;54551;51.068;5.826;2022-12-19T15:12:57;6.00;;;2.63;;
67751;SDS011;54551;51.068;5.826;2022-12-19T15:20:57;3.40;;;2.43;;
67751;SDS011;54551;51.068;5.826;2022-12-19T15:23:25;3.70;;;2.57;;
67751;SDS011;54551;51.068;5.826;2022-12-19T15:25:52;3.83;;;2.77;;
67751;SDS011;54551;51.068;5.826;2022-12-19T15:28:20;3.17;;;2.43;;
67751;SDS011;54551;51.068;5.826;2022-12-19T15:30:57;3.33;;;2.73;;
67751;SDS011;54551;51.068;5.826;2022-12-19T15:33:26;2.90;;;2.30;;
67751;SDS011;54551;51.068;5.826;2022-12-19T15:35:52;3.23;;;2.53;;
67751;SDS011;54551;51.068;5.826;2022-12-19T15:38:19;5.17;;;2.87;;
67751;SDS011;54551;51.068;5.826;2022-12-19T15:40:45;2.77;;;2.50;;
67751;SDS011;54551;51.068;5.826;2022-12-19T15:43:19;3.63;;;2.43;;
67751;SDS011;54551;51.068;5.826;2022-12-19T15:45:47;4.23;;;2.70;;
67751;SDS011;54551;51.068;5.826;2022-12-19T15:48:19;3.67;;;2.70;;
67751;SDS011;54551;51.068;5.826;2022-12-19T15:50:46;3.40;;;2.47;;
67751;SDS011;54551;51.068;5.826;2022-12-19T15:53:28;3.07;;;2.27;;
67751;SDS011;54551;51.068;5.826;2022-12-19T15:55:58;3.53;;;2.30;;
67751;SDS011;54551;51.068;5.826;2022-12-19T15:58:25;3.27;;;2.33;;
67751;SDS011;54551;51.068;5.826;2022-12-19T16:00:56;2.57;;;2.20;;
67751;SDS011;54551;51.068;5.826;2022-12-19T16:03:24;3.27;;;2.70;;
67751;SDS011;54551;51.068;5.826;2022-12-19T16:05:50;3.93;;;2.30;;
67751;SDS011;54551;51.068;5.826;2022-12-19T16:08:18;2.90;;;2.60;;
67751;SDS011;54551;51.068;5.826;2022-12-19T16:10:47;5.27;;;2.67;;
67751;SDS011;54551;51.068;5.826;2022-12-19T16:13:20;2.50;;;2.20;;
67751;SDS011;54551;51.068;5.826;2022-12-19T16:15:48;3.17;;;2.33;;
67751;SDS011;54551;51.068;5.826;2022-12-19T16:18:15;5.27;;;2.80;;
67751;SDS011;54551;51.068;5.826;2022-12-19T16:20:41;4.07;;;2.60;;
67751;SDS011;54551;51.068;5.826;2022-12-19T16:23:07;2.47;;;2.20;;
67751;SDS011;54551;51.068;5.826;2022-12-19T16:25:37;6.13;;;5.17;;
67751;SDS011;54551;51.068;5.826;2022-12-19T16:28:05;4.63;;;2.17;;
67751;SDS011;54551;51.068;5.826;2022-12-19T16:30:32;3.87;;;2.40;;
67751;SDS011;54551;51.068;5.826;2022-12-19T16:32:59;4.30;;;2.17;;
67751;SDS011;54551;51.068;5.826;2022-12-19T16:35:26;2.60;;;2.30;;
67751;SDS011;54551;51.068;5.826;2022-12-19T16:37:53;4.33;;;2.50;;
67751;SDS011;54551;51.068;5.826;2022-12-19T16:40:20;3.07;;;2.50;;
67751;SDS011;54551;51.068;5.826;2022-12-19T16:42:54;3.27;;;2.70;;
67751;SDS011;54551;51.068;5.826;2022-12-19T16:45:27;2.80;;;2.23;;
67751;SDS011;54551;51.068;5.826;2022-12-19T16:47:53;2.83;;;2.07;;
67751;SDS011;54551;51.068;5.826;2022-12-19T16:50:23;2.63;;;2.43;;
67751;SDS011;54551;51.068;5.826;2022-12-19T16:52:52;5.43;;;2.60;;
67751;SDS011;54551;51.068;5.826;2022-12-19T16:55:19;3.23;;;2.73;;
67751;SDS011;54551;51.068;5.826;2022-12-19T16:57:47;4.57;;;2.50;;
67751;SDS011;54551;51.068;5.826;2022-12-19T17:00:18;3.27;;;2.47;;
67751;SDS011;54551;51.068;5.826;2022-12-19T17:02:50;3.43;;;2.37;;
67751;SDS011;54551;51.068;5.826;2022-12-19T17:05:29;3.70;;;2.53;;
67751;SDS011;54551;51.068;5.826;2022-12-19T17:07:56;4.17;;;2.77;;
67751;SDS011;54551;51.068;5.826;2022-12-19T17:10:26;3.60;;;2.20;;
67751;SDS011;54551;51.068;5.826;2022-12-19T17:12:57;4.73;;;2.87;;
67751;SDS011;54551;51.068;5.826;2022-12-19T17:15:27;3.97;;;2.30;;
67751;SDS011;54551;51.068;5.826;2022-12-19T17:17:57;5.90;;;2.47;;
67751;SDS011;54551;51.068;5.826;2022-12-19T17:20:26;3.47;;;2.17;;
67751;SDS011;54551;51.068;5.826;2022-12-19T17:22:56;3.53;;;2.60;;
67751;SDS011;54551;51.068;5.826;2022-12-19T17:25:23;2.60;;;2.17;;
67751;SDS011;54551;51.068;5.826;2022-12-19T17:27:51;4.40;;;2.50;;